sensor_id;sensor_type;location;lat;lon;timestamp;P1;durP1;ratioP1;P2;durP2;ratioP2
20022;SDS011;10172;42.054;24.546;2022-08-19T00:02:22;8.80;;;3.72;;
20022;SDS011;10172;42.054;24.546;2022-08-19T00:04:48;6.85;;;3.45;;
20022;SDS011;10172;42.054;24.546;2022-08-19T00:07:17;4.05;;;3.50;;
20022;SDS011;10172;42.054;24.546;2022-08-19T00:09:45;5.72;;;3.13;;
20022;SDS011;10172;42.054;24.546;2022-08-19T00:12:11;4.57;;;3.45;;
20022;SDS011;10172;42.054;24.546;2022-08-19T00:14:37;4.75;;;3.00;;
20022;SDS011;10172;42.054;24.546;2022-08-19T00:17:04;5.88;;;3.60;;
20022;SDS011;10172;42.054;24.546;2022-08-19T00:19:31;4.97;;;3.20;;
20022;SDS011;10172;42.054;24.546;2022-08-19T00:21:58;4.82;;;3.30;;
20022;SDS011;10172;42.054;24.546;2022-08-19T00:24:24;6.10;;;3.33;;
20022;SDS011;10172;42.054;24.546;2022-08-19T00:26:50;3.72;;;3.00;;
20022;SDS011;10172;42.054;24.546;2022-08-19T00:29:17;4.82;;;3.25;;
20022;SDS011;10172;42.054;24.546;2022-08-19T00:31:44;5.35;;;3.30;;
20022;SDS011;10172;42.054;24.546;2022-08-19T00:34:12;3.83;;;3.05;;
20022;SDS011;10172;42.054;24.546;2022-08-19T00:36:39;4.43;;;3.22;;
20022;SDS011;10172;42.054;24.546;2022-08-19T00:39:06;3.63;;;2.88;;
20022;SDS011;10172;42.054;24.546;2022-08-19T00:41:32;4.00;;;3.13;;
20022;SDS011;10172;42.054;24.546;2022-08-19T00:44:11;4.10;;;3.28;;
20022;SDS011;10172;42.054;24.546;2022-08-19T00:46:40;5.75;;;3.53;;
20022;SDS011;10172;42.054;24.546;2022-08-19T00:49:12;5.45;;;3.35;;
20022;SDS011;10172;42.054;24.546;2022-08-19T00:51:42;4.95;;;3.25;;
20022;SDS011;10172;42.054;24.546;2022-08-19T00:54:11;5.13;;;2.92;;
20022;SDS011;10172;42.054;24.546;2022-08-19T00:56:37;3.60;;;3.03;;
20022;SDS011;10172;42.054;24.546;2022-08-19T00:59:03;5.90;;;3.28;;
20022;SDS011;10172;42.054;24.546;2022-08-19T01:01:33;4.22;;;3.20;;
20022;SDS011;10172;42.054;24.546;2022-08-19T01:04:03;4.90;;;2.90;;
20022;SDS011;10172;42.054;24.546;2022-08-19T01:06:28;5.30;;;2.97;;
20022;SDS011;10172;42.054;24.546;2022-08-19T01:08:57;4.43;;;3.35;;
20022;SDS011;10172;42.054;24.546;2022-08-19T01:11:24;6.20;;;3.35;;
20022;SDS011;10172;42.054;24.546;2022-08-19T01:13:50;6.53;;;3.50;;
20022;SDS011;10172;42.054;24.546;2022-08-19T01:16:17;4.82;;;3.10;;
20022;SDS011;10172;42.054;24.546;2022-08-19T01:18:45;5.05;;;3.25;;
20022;SDS011;10172;42.054;24.546;2022-08-19T01:21:54;4.40;;;3.33;;
20022;SDS011;10172;42.054;24.546;2022-08-19T01:24:04;5.35;;;3.58;;
20022;SDS011;10172;42.054;24.546;2022-08-19T01:26:30;5.25;;;3.58;;
20022;SDS011;10172;42.054;24.546;2022-08-19T01:28:56;4.88;;;3.22;;
20022;SDS011;10172;42.054;24.546;2022-08-19T01:31:25;4.22;;;3.25;;
20022;SDS011;10172;42.054;24.546;2022-08-19T01:33:56;4.00;;;3.20;;
20022;SDS011;10172;42.054;24.546;2022-08-19T01:38:56;6.55;;;3.40;;
20022;SDS011;10172;42.054;24.546;2022-08-19T01:41:23;6.55;;;3.60;;
20022;SDS011;10172;42.054;24.546;2022-08-19T01:43:49;4.40;;;3.30;;
20022;SDS011;10172;42.054;24.546;2022-08-19T01:46:16;5.25;;;3.40;;
20022;SDS011;10172;42.054;24.546;2022-08-19T01:48:42;3.88;;;3.42;;
20022;SDS011;10172;42.054;24.546;2022-08-19T01:51:10;4.38;;;3.60;;
20022;SDS011;10172;42.054;24.546;2022-08-19T01:53:36;3.90;;;3.17;;
20022;SDS011;10172;42.054;24.546;2022-08-19T01:56:02;5.90;;;3.47;;
20022;SDS011;10172;42.054;24.546;2022-08-19T01:58:31;4.32;;;3.40;;
20022;SDS011;10172;42.054;24.546;2022-08-19T02:01:00;4.40;;;3.33;;
20022;SDS011;10172;42.054;24.546;2022-08-19T02:03:26;5.97;;;3.90;;
20022;SDS011;10172;42.054;24.546;2022-08-19T02:06:03;5.68;;;3.55;;
20022;SDS011;10172;42.054;24.546;2022-08-19T02:08:30;4.75;;;3.28;;
20022;SDS011;10172;42.054;24.546;2022-08-19T02:10:57;5.40;;;3.83;;
20022;SDS011;10172;42.054;24.546;2022-08-19T02:13:23;5.78;;;3.70;;
20022;SDS011;10172;42.054;24.546;2022-08-19T02:15:52;4.78;;;3.35;;
20022;SDS011;10172;42.054;24.546;2022-08-19T02:18:17;5.82;;;3.63;;
20022;SDS011;10172;42.054;24.546;2022-08-19T02:20:43;7.15;;;3.92;;
20022;SDS011;10172;42.054;24.546;2022-08-19T02:23:12;6.50;;;4.18;;
20022;SDS011;10172;42.054;24.546;2022-08-19T02:25:38;6.03;;;3.63;;
20022;SDS011;10172;42.054;24.546;2022-08-19T02:28:04;5.10;;;3.50;;
20022;SDS011;10172;42.054;24.546;2022-08-19T02:30:30;4.90;;;3.63;;
20022;SDS011;10172;42.054;24.546;2022-08-19T02:32:57;7.93;;;3.78;;
20022;SDS011;10172;42.054;24.546;2022-08-19T02:35:23;7.15;;;3.95;;
20022;SDS011;10172;42.054;24.546;2022-08-19T02:37:48;7.43;;;4.07;;
20022;SDS011;10172;42.054;24.546;2022-08-19T02:40:32;5.32;;;3.90;;
20022;SDS011;10172;42.054;24.546;2022-08-19T02:43:05;4.65;;;3.75;;
20022;SDS011;10172;42.054;24.546;2022-08-19T02:45:36;10.38;;;4.43;;
20022;SDS011;10172;42.054;24.546;2022-08-19T02:48:03;7.75;;;4.30;;
20022;SDS011;10172;42.054;24.546;2022-08-19T02:50:30;7.20;;;4.57;;
20022;SDS011;10172;42.054;24.546;2022-08-19T02:52:56;4.50;;;3.58;;
20022;SDS011;10172;42.054;24.546;2022-08-19T02:55:22;5.68;;;3.70;;
20022;SDS011;10172;42.054;24.546;2022-08-19T02:57:47;7.45;;;4.05;;
20022;SDS011;10172;42.054;24.546;2022-08-19T03:00:14;5.05;;;4.00;;
20022;SDS011;10172;42.054;24.546;2022-08-19T03:06:07;7.38;;;4.32;;
20022;SDS011;10172;42.054;24.546;2022-08-19T03:08:38;4.45;;;3.38;;
20022;SDS011;10172;42.054;24.546;2022-08-19T03:11:06;4.80;;;3.78;;
20022;SDS011;10172;42.054;24.546;2022-08-19T03:13:37;4.63;;;4.10;;
20022;SDS011;10172;42.054;24.546;2022-08-19T03:16:03;7.30;;;4.28;;
20022;SDS011;10172;42.054;24.546;2022-08-19T03:18:30;7.70;;;4.53;;
20022;SDS011;10172;42.054;24.546;2022-08-19T03:20:55;15.07;;;5.15;;
20022;SDS011;10172;42.054;24.546;2022-08-19T03:23:22;5.53;;;4.40;;
20022;SDS011;10172;42.054;24.546;2022-08-19T03:25:48;6.50;;;4.43;;
20022;SDS011;10172;42.054;24.546;2022-08-19T03:28:16;5.75;;;3.97;;
20022;SDS011;10172;42.054;24.546;2022-08-19T03:30:42;5.13;;;3.53;;
20022;SDS011;10172;42.054;24.546;2022-08-19T03:33:21;7.57;;;4.25;;
20022;SDS011;10172;42.054;24.546;2022-08-19T03:35:46;6.22;;;4.10;;
20022;SDS011;10172;42.054;24.546;2022-08-19T03:38:12;5.28;;;3.83;;
20022;SDS011;10172;42.054;24.546;2022-08-19T03:40:37;9.45;;;4.15;;
20022;SDS011;10172;42.054;24.546;2022-08-19T03:43:02;9.43;;;4.53;;
20022;SDS011;10172;42.054;24.546;2022-08-19T03:45:28;6.85;;;4.30;;
20022;SDS011;10172;42.054;24.546;2022-08-19T03:47:54;4.95;;;3.88;;
20022;SDS011;10172;42.054;24.546;2022-08-19T03:50:20;5.22;;;3.92;;
20022;SDS011;10172;42.054;24.546;2022-08-19T03:52:49;6.95;;;4.30;;
20022;SDS011;10172;42.054;24.546;2022-08-19T03:55:15;6.25;;;4.00;;
20022;SDS011;10172;42.054;24.546;2022-08-19T03:57:41;5.80;;;3.88;;
20022;SDS011;10172;42.054;24.546;2022-08-19T04:00:07;6.53;;;4.53;;
20022;SDS011;10172;42.054;24.546;2022-08-19T04:02:34;8.95;;;4.28;;
20022;SDS011;10172;42.054;24.546;2022-08-19T04:04:59;4.95;;;3.92;;
20022;SDS011;10172;42.054;24.546;2022-08-19T04:07:25;5.20;;;3.75;;
20022;SDS011;10172;42.054;24.546;2022-08-19T04:09:50;5.53;;;3.65;;
20022;SDS011;10172;42.054;24.546;2022-08-19T04:12:17;7.57;;;4.03;;
20022;SDS011;10172;42.054;24.546;2022-08-19T04:14:45;7.18;;;4.60;;
20022;SDS011;10172;42.054;24.546;2022-08-19T04:17:11;6.32;;;3.80;;
20022;SDS011;10172;42.054;24.546;2022-08-19T04:19:38;7.55;;;4.70;;
20022;SDS011;10172;42.054;24.546;2022-08-19T04:22:05;5.85;;;4.43;;
20022;SDS011;10172;42.054;24.546;2022-08-19T04:24:31;7.82;;;4.75;;
20022;SDS011;10172;42.054;24.546;2022-08-19T04:26:59;7.60;;;4.82;;
20022;SDS011;10172;42.054;24.546;2022-08-19T04:29:25;7.00;;;4.90;;
20022;SDS011;10172;42.054;24.546;2022-08-19T04:31:52;7.43;;;4.68;;
20022;SDS011;10172;42.054;24.546;2022-08-19T04:34:20;6.57;;;4.28;;
20022;SDS011;10172;42.054;24.546;2022-08-19T04:36:47;6.63;;;4.68;;
20022;SDS011;10172;42.054;24.546;2022-08-19T04:39:16;6.25;;;4.80;;
20022;SDS011;10172;42.054;24.546;2022-08-19T04:41:44;6.43;;;4.45;;
20022;SDS011;10172;42.054;24.546;2022-08-19T04:44:33;6.90;;;4.25;;
20022;SDS011;10172;42.054;24.546;2022-08-19T04:47:00;7.35;;;5.07;;
20022;SDS011;10172;42.054;24.546;2022-08-19T04:49:26;5.57;;;4.93;;
20022;SDS011;10172;42.054;24.546;2022-08-19T04:51:53;10.38;;;4.35;;
20022;SDS011;10172;42.054;24.546;2022-08-19T04:54:20;5.95;;;4.15;;
20022;SDS011;10172;42.054;24.546;2022-08-19T04:56:48;6.25;;;4.68;;
20022;SDS011;10172;42.054;24.546;2022-08-19T04:59:15;7.15;;;4.78;;
20022;SDS011;10172;42.054;24.546;2022-08-19T05:01:42;5.05;;;4.43;;
20022;SDS011;10172;42.054;24.546;2022-08-19T05:04:08;7.10;;;4.43;;
20022;SDS011;10172;42.054;24.546;2022-08-19T05:06:34;5.93;;;4.40;;
20022;SDS011;10172;42.054;24.546;2022-08-19T05:09:02;7.50;;;4.50;;
20022;SDS011;10172;42.054;24.546;2022-08-19T05:11:31;7.63;;;4.28;;
20022;SDS011;10172;42.054;24.546;2022-08-19T05:13:59;6.25;;;4.72;;
20022;SDS011;10172;42.054;24.546;2022-08-19T05:16:25;7.60;;;4.25;;
20022;SDS011;10172;42.054;24.546;2022-08-19T05:18:52;6.28;;;4.40;;
20022;SDS011;10172;42.054;24.546;2022-08-19T05:21:36;6.75;;;4.20;;
20022;SDS011;10172;42.054;24.546;2022-08-19T05:24:22;5.18;;;4.53;;
20022;SDS011;10172;42.054;24.546;2022-08-19T05:26:49;6.93;;;4.47;;
20022;SDS011;10172;42.054;24.546;2022-08-19T05:29:17;8.90;;;4.20;;
20022;SDS011;10172;42.054;24.546;2022-08-19T05:31:45;7.00;;;4.22;;
20022;SDS011;10172;42.054;24.546;2022-08-19T05:34:12;7.78;;;4.25;;
20022;SDS011;10172;42.054;24.546;2022-08-19T05:36:40;6.25;;;5.28;;
20022;SDS011;10172;42.054;24.546;2022-08-19T05:39:11;6.07;;;4.65;;
20022;SDS011;10172;42.054;24.546;2022-08-19T05:41:51;6.45;;;4.60;;
20022;SDS011;10172;42.054;24.546;2022-08-19T05:44:19;5.88;;;4.90;;
20022;SDS011;10172;42.054;24.546;2022-08-19T05:46:46;7.10;;;4.72;;
20022;SDS011;10172;42.054;24.546;2022-08-19T05:49:12;6.57;;;4.50;;
20022;SDS011;10172;42.054;24.546;2022-08-19T05:51:39;8.52;;;5.03;;
20022;SDS011;10172;42.054;24.546;2022-08-19T05:54:05;7.07;;;5.00;;
20022;SDS011;10172;42.054;24.546;2022-08-19T05:56:32;7.35;;;4.18;;
20022;SDS011;10172;42.054;24.546;2022-08-19T05:59:01;7.60;;;4.78;;
20022;SDS011;10172;42.054;24.546;2022-08-19T06:01:28;6.25;;;4.10;;
20022;SDS011;10172;42.054;24.546;2022-08-19T06:03:53;5.65;;;4.63;;
20022;SDS011;10172;42.054;24.546;2022-08-19T06:06:19;7.57;;;4.07;;
20022;SDS011;10172;42.054;24.546;2022-08-19T06:08:45;7.75;;;4.28;;
20022;SDS011;10172;42.054;24.546;2022-08-19T06:13:45;7.40;;;4.43;;
20022;SDS011;10172;42.054;24.546;2022-08-19T06:16:16;5.55;;;4.70;;
20022;SDS011;10172;42.054;24.546;2022-08-19T06:18:49;6.53;;;4.63;;
20022;SDS011;10172;42.054;24.546;2022-08-19T06:21:22;6.55;;;4.47;;
20022;SDS011;10172;42.054;24.546;2022-08-19T06:23:50;5.95;;;4.40;;
20022;SDS011;10172;42.054;24.546;2022-08-19T06:26:17;6.57;;;4.72;;
20022;SDS011;10172;42.054;24.546;2022-08-19T06:28:43;5.63;;;4.25;;
20022;SDS011;10172;42.054;24.546;2022-08-19T06:31:18;8.95;;;4.30;;
20022;SDS011;10172;42.054;24.546;2022-08-19T06:33:46;6.57;;;4.18;;
20022;SDS011;10172;42.054;24.546;2022-08-19T06:36:19;6.65;;;4.28;;
20022;SDS011;10172;42.054;24.546;2022-08-19T06:38:47;6.80;;;4.10;;
20022;SDS011;10172;42.054;24.546;2022-08-19T06:41:12;6.53;;;4.35;;
20022;SDS011;10172;42.054;24.546;2022-08-19T06:43:38;7.82;;;4.40;;
20022;SDS011;10172;42.054;24.546;2022-08-19T06:46:08;6.22;;;4.35;;
20022;SDS011;10172;42.054;24.546;2022-08-19T06:48:36;6.80;;;4.05;;
20022;SDS011;10172;42.054;24.546;2022-08-19T06:51:01;7.68;;;4.40;;
20022;SDS011;10172;42.054;24.546;2022-08-19T06:53:30;4.90;;;3.97;;
20022;SDS011;10172;42.054;24.546;2022-08-19T06:55:55;5.80;;;4.13;;
20022;SDS011;10172;42.054;24.546;2022-08-19T06:58:25;5.20;;;4.10;;
20022;SDS011;10172;42.054;24.546;2022-08-19T07:00:50;5.28;;;3.78;;
20022;SDS011;10172;42.054;24.546;2022-08-19T07:03:16;4.45;;;3.70;;
20022;SDS011;10172;42.054;24.546;2022-08-19T07:05:42;8.35;;;4.00;;
20022;SDS011;10172;42.054;24.546;2022-08-19T07:08:09;8.20;;;4.82;;
20022;SDS011;10172;42.054;24.546;2022-08-19T07:10:34;6.32;;;4.10;;
20022;SDS011;10172;42.054;24.546;2022-08-19T07:13:01;9.95;;;4.30;;
20022;SDS011;10172;42.054;24.546;2022-08-19T07:15:28;5.60;;;4.00;;
20022;SDS011;10172;42.054;24.546;2022-08-19T07:17:54;5.55;;;3.58;;
20022;SDS011;10172;42.054;24.546;2022-08-19T07:20:20;4.63;;;3.47;;
20022;SDS011;10172;42.054;24.546;2022-08-19T07:22:45;4.68;;;3.42;;
20022;SDS011;10172;42.054;24.546;2022-08-19T07:25:11;5.65;;;4.13;;
20022;SDS011;10172;42.054;24.546;2022-08-19T07:27:38;4.90;;;3.55;;
20022;SDS011;10172;42.054;24.546;2022-08-19T07:30:04;5.47;;;4.25;;
20022;SDS011;10172;42.054;24.546;2022-08-19T07:32:31;4.82;;;3.85;;
20022;SDS011;10172;42.054;24.546;2022-08-19T07:34:56;6.55;;;4.30;;
20022;SDS011;10172;42.054;24.546;2022-08-19T07:37:22;4.45;;;3.83;;
20022;SDS011;10172;42.054;24.546;2022-08-19T07:39:48;5.60;;;3.67;;
20022;SDS011;10172;42.054;24.546;2022-08-19T07:42:13;4.80;;;3.80;;
20022;SDS011;10172;42.054;24.546;2022-08-19T07:44:40;5.22;;;3.63;;
20022;SDS011;10172;42.054;24.546;2022-08-19T07:47:06;5.13;;;3.80;;
20022;SDS011;10172;42.054;24.546;2022-08-19T07:49:31;7.18;;;4.00;;
20022;SDS011;10172;42.054;24.546;2022-08-19T07:52:03;5.70;;;3.95;;
20022;SDS011;10172;42.054;24.546;2022-08-19T07:54:32;7.75;;;3.83;;
20022;SDS011;10172;42.054;24.546;2022-08-19T07:57:00;4.88;;;3.65;;
20022;SDS011;10172;42.054;24.546;2022-08-19T07:59:27;5.15;;;3.55;;
20022;SDS011;10172;42.054;24.546;2022-08-19T08:01:54;3.85;;;3.20;;
20022;SDS011;10172;42.054;24.546;2022-08-19T08:04:20;4.60;;;3.70;;
20022;SDS011;10172;42.054;24.546;2022-08-19T08:07:05;7.28;;;3.70;;
20022;SDS011;10172;42.054;24.546;2022-08-19T08:09:50;4.13;;;3.50;;
20022;SDS011;10172;42.054;24.546;2022-08-19T08:12:21;4.78;;;3.70;;
20022;SDS011;10172;42.054;24.546;2022-08-19T08:14:57;7.25;;;4.05;;
20022;SDS011;10172;42.054;24.546;2022-08-19T08:17:27;3.92;;;3.55;;
20022;SDS011;10172;42.054;24.546;2022-08-19T08:19:53;5.75;;;3.95;;
20022;SDS011;10172;42.054;24.546;2022-08-19T08:22:19;5.15;;;3.70;;
20022;SDS011;10172;42.054;24.546;2022-08-19T08:25:10;4.28;;;3.47;;
20022;SDS011;10172;42.054;24.546;2022-08-19T08:27:42;4.57;;;3.50;;
20022;SDS011;10172;42.054;24.546;2022-08-19T08:30:10;6.55;;;3.42;;
20022;SDS011;10172;42.054;24.546;2022-08-19T08:32:41;4.78;;;3.58;;
20022;SDS011;10172;42.054;24.546;2022-08-19T08:35:08;4.45;;;3.78;;
20022;SDS011;10172;42.054;24.546;2022-08-19T08:37:37;4.93;;;3.60;;
20022;SDS011;10172;42.054;24.546;2022-08-19T08:40:04;5.78;;;3.67;;
20022;SDS011;10172;42.054;24.546;2022-08-19T08:42:34;5.65;;;3.42;;
20022;SDS011;10172;42.054;24.546;2022-08-19T08:45:06;7.50;;;3.50;;
20022;SDS011;10172;42.054;24.546;2022-08-19T08:47:40;5.00;;;3.28;;
20022;SDS011;10172;42.054;24.546;2022-08-19T08:50:18;7.10;;;4.05;;
20022;SDS011;10172;42.054;24.546;2022-08-19T08:52:52;5.45;;;3.83;;
20022;SDS011;10172;42.054;24.546;2022-08-19T08:55:23;4.53;;;3.50;;
20022;SDS011;10172;42.054;24.546;2022-08-19T08:58:12;5.45;;;3.75;;
20022;SDS011;10172;42.054;24.546;2022-08-19T09:00:46;8.10;;;4.28;;
20022;SDS011;10172;42.054;24.546;2022-08-19T09:03:17;5.28;;;3.63;;
20022;SDS011;10172;42.054;24.546;2022-08-19T09:11:19;3.90;;;3.40;;
20022;SDS011;10172;42.054;24.546;2022-08-19T09:17:06;5.32;;;3.53;;
20022;SDS011;10172;42.054;24.546;2022-08-19T09:19:34;5.40;;;3.42;;
20022;SDS011;10172;42.054;24.546;2022-08-19T09:22:12;7.07;;;3.75;;
20022;SDS011;10172;42.054;24.546;2022-08-19T09:24:38;4.53;;;3.58;;
20022;SDS011;10172;42.054;24.546;2022-08-19T09:27:04;5.03;;;3.72;;
20022;SDS011;10172;42.054;24.546;2022-08-19T09:29:29;5.78;;;3.60;;
20022;SDS011;10172;42.054;24.546;2022-08-19T09:31:55;4.90;;;3.33;;
20022;SDS011;10172;42.054;24.546;2022-08-19T09:34:21;4.35;;;3.63;;
20022;SDS011;10172;42.054;24.546;2022-08-19T09:36:46;3.70;;;3.28;;
20022;SDS011;10172;42.054;24.546;2022-08-19T09:39:18;5.40;;;3.33;;
20022;SDS011;10172;42.054;24.546;2022-08-19T09:41:43;7.13;;;3.58;;
20022;SDS011;10172;42.054;24.546;2022-08-19T09:44:09;7.28;;;3.40;;
20022;SDS011;10172;42.054;24.546;2022-08-19T09:46:37;5.80;;;3.45;;
20022;SDS011;10172;42.054;24.546;2022-08-19T09:49:02;4.80;;;2.92;;
20022;SDS011;10172;42.054;24.546;2022-08-19T09:51:31;6.20;;;3.30;;
20022;SDS011;10172;42.054;24.546;2022-08-19T09:54:00;3.70;;;3.20;;
20022;SDS011;10172;42.054;24.546;2022-08-19T09:56:28;5.00;;;3.10;;
20022;SDS011;10172;42.054;24.546;2022-08-19T09:58:55;4.47;;;3.20;;
20022;SDS011;10172;42.054;24.546;2022-08-19T10:01:25;6.30;;;3.30;;
20022;SDS011;10172;42.054;24.546;2022-08-19T10:03:53;6.75;;;3.20;;
20022;SDS011;10172;42.054;24.546;2022-08-19T10:06:21;3.85;;;3.45;;
20022;SDS011;10172;42.054;24.546;2022-08-19T10:08:48;8.93;;;3.50;;
20022;SDS011;10172;42.054;24.546;2022-08-19T10:11:16;5.90;;;3.33;;
20022;SDS011;10172;42.054;24.546;2022-08-19T10:13:43;6.25;;;3.42;;
20022;SDS011;10172;42.054;24.546;2022-08-19T10:16:10;6.65;;;3.08;;
20022;SDS011;10172;42.054;24.546;2022-08-19T10:18:38;3.78;;;3.13;;
20022;SDS011;10172;42.054;24.546;2022-08-19T10:21:06;6.32;;;3.55;;
20022;SDS011;10172;42.054;24.546;2022-08-19T10:23:35;5.53;;;3.10;;
20022;SDS011;10172;42.054;24.546;2022-08-19T10:26:03;8.07;;;3.65;;
20022;SDS011;10172;42.054;24.546;2022-08-19T10:28:32;5.05;;;3.47;;
20022;SDS011;10172;42.054;24.546;2022-08-19T10:31:03;5.85;;;3.38;;
20022;SDS011;10172;42.054;24.546;2022-08-19T10:33:31;4.78;;;3.17;;
20022;SDS011;10172;42.054;24.546;2022-08-19T10:36:04;10.55;;;3.63;;
20022;SDS011;10172;42.054;24.546;2022-08-19T10:38:35;4.63;;;2.67;;
20022;SDS011;10172;42.054;24.546;2022-08-19T10:41:08;4.30;;;3.00;;
20022;SDS011;10172;42.054;24.546;2022-08-19T10:43:37;3.60;;;2.67;;
20022;SDS011;10172;42.054;24.546;2022-08-19T10:46:05;6.15;;;2.83;;
20022;SDS011;10172;42.054;24.546;2022-08-19T10:48:35;3.90;;;2.67;;
20022;SDS011;10172;42.054;24.546;2022-08-19T10:51:01;4.78;;;2.78;;
20022;SDS011;10172;42.054;24.546;2022-08-19T10:53:45;5.57;;;3.05;;
20022;SDS011;10172;42.054;24.546;2022-08-19T10:56:10;5.15;;;2.80;;
20022;SDS011;10172;42.054;24.546;2022-08-19T10:58:55;6.35;;;3.13;;
20022;SDS011;10172;42.054;24.546;2022-08-19T11:01:21;3.78;;;3.05;;
20022;SDS011;10172;42.054;24.546;2022-08-19T11:03:47;5.00;;;3.42;;
20022;SDS011;10172;42.054;24.546;2022-08-19T11:06:12;6.82;;;3.05;;
20022;SDS011;10172;42.054;24.546;2022-08-19T11:08:38;3.97;;;3.10;;
20022;SDS011;10172;42.054;24.546;2022-08-19T11:11:03;7.22;;;2.97;;
20022;SDS011;10172;42.054;24.546;2022-08-19T11:13:31;4.00;;;3.20;;
20022;SDS011;10172;42.054;24.546;2022-08-19T11:16:03;5.20;;;3.00;;
20022;SDS011;10172;42.054;24.546;2022-08-19T11:18:41;5.38;;;3.20;;
20022;SDS011;10172;42.054;24.546;2022-08-19T11:21:11;7.00;;;3.08;;
20022;SDS011;10172;42.054;24.546;2022-08-19T11:23:36;3.83;;;2.85;;
20022;SDS011;10172;42.054;24.546;2022-08-19T11:26:02;4.53;;;3.30;;
20022;SDS011;10172;42.054;24.546;2022-08-19T11:28:27;4.63;;;3.20;;
20022;SDS011;10172;42.054;24.546;2022-08-19T11:30:53;7.40;;;3.53;;
20022;SDS011;10172;42.054;24.546;2022-08-19T11:33:21;4.82;;;3.22;;
20022;SDS011;10172;42.054;24.546;2022-08-19T11:35:46;4.90;;;3.05;;
20022;SDS011;10172;42.054;24.546;2022-08-19T11:38:14;4.38;;;2.92;;
20022;SDS011;10172;42.054;24.546;2022-08-19T11:40:39;5.47;;;3.05;;
20022;SDS011;10172;42.054;24.546;2022-08-19T11:43:07;6.10;;;3.28;;
20022;SDS011;10172;42.054;24.546;2022-08-19T11:45:34;4.82;;;3.08;;
20022;SDS011;10172;42.054;24.546;2022-08-19T11:48:00;5.47;;;3.10;;
20022;SDS011;10172;42.054;24.546;2022-08-19T11:50:26;4.50;;;3.38;;
20022;SDS011;10172;42.054;24.546;2022-08-19T11:52:55;8.05;;;3.65;;
20022;SDS011;10172;42.054;24.546;2022-08-19T11:55:22;7.80;;;3.40;;
20022;SDS011;10172;42.054;24.546;2022-08-19T11:57:48;8.00;;;3.35;;
20022;SDS011;10172;42.054;24.546;2022-08-19T12:00:14;5.20;;;3.28;;
20022;SDS011;10172;42.054;24.546;2022-08-19T12:02:40;6.25;;;3.40;;
20022;SDS011;10172;42.054;24.546;2022-08-19T12:05:05;4.18;;;3.40;;
20022;SDS011;10172;42.054;24.546;2022-08-19T12:07:32;5.63;;;3.70;;
20022;SDS011;10172;42.054;24.546;2022-08-19T12:09:58;4.07;;;3.05;;
20022;SDS011;10172;42.054;24.546;2022-08-19T12:12:25;4.70;;;3.20;;
20022;SDS011;10172;42.054;24.546;2022-08-19T12:14:52;6.53;;;3.67;;
20022;SDS011;10172;42.054;24.546;2022-08-19T12:17:30;5.28;;;3.33;;
20022;SDS011;10172;42.054;24.546;2022-08-19T12:19:55;7.68;;;3.40;;
20022;SDS011;10172;42.054;24.546;2022-08-19T12:22:21;5.35;;;3.40;;
20022;SDS011;10172;42.054;24.546;2022-08-19T12:24:47;5.57;;;2.95;;
20022;SDS011;10172;42.054;24.546;2022-08-19T12:27:15;4.43;;;3.45;;
20022;SDS011;10172;42.054;24.546;2022-08-19T12:29:40;5.43;;;3.20;;
20022;SDS011;10172;42.054;24.546;2022-08-19T12:32:06;4.38;;;3.45;;
20022;SDS011;10172;42.054;24.546;2022-08-19T12:34:32;4.63;;;3.42;;
20022;SDS011;10172;42.054;24.546;2022-08-19T12:36:58;4.47;;;3.00;;
20022;SDS011;10172;42.054;24.546;2022-08-19T12:39:27;3.85;;;2.92;;
20022;SDS011;10172;42.054;24.546;2022-08-19T12:41:52;4.93;;;3.63;;
20022;SDS011;10172;42.054;24.546;2022-08-19T12:44:18;4.55;;;3.35;;
20022;SDS011;10172;42.054;24.546;2022-08-19T12:46:44;4.30;;;3.10;;
20022;SDS011;10172;42.054;24.546;2022-08-19T12:49:10;4.47;;;3.00;;
20022;SDS011;10172;42.054;24.546;2022-08-19T12:51:35;6.43;;;3.53;;
20022;SDS011;10172;42.054;24.546;2022-08-19T12:54:01;3.90;;;3.20;;
20022;SDS011;10172;42.054;24.546;2022-08-19T12:56:29;6.97;;;3.78;;
20022;SDS011;10172;42.054;24.546;2022-08-19T12:58:56;5.68;;;3.55;;
20022;SDS011;10172;42.054;24.546;2022-08-19T13:01:21;4.55;;;3.22;;
20022;SDS011;10172;42.054;24.546;2022-08-19T13:03:47;4.93;;;3.40;;
20022;SDS011;10172;42.054;24.546;2022-08-19T13:06:12;6.57;;;3.67;;
20022;SDS011;10172;42.054;24.546;2022-08-19T13:08:38;5.90;;;3.60;;
20022;SDS011;10172;42.054;24.546;2022-08-19T13:11:11;5.15;;;3.50;;
20022;SDS011;10172;42.054;24.546;2022-08-19T13:13:40;5.78;;;3.25;;
20022;SDS011;10172;42.054;24.546;2022-08-19T13:16:07;5.00;;;3.40;;
20022;SDS011;10172;42.054;24.546;2022-08-19T13:18:36;4.55;;;3.33;;
20022;SDS011;10172;42.054;24.546;2022-08-19T13:21:03;4.32;;;3.85;;
20022;SDS011;10172;42.054;24.546;2022-08-19T13:23:31;7.13;;;3.45;;
20022;SDS011;10172;42.054;24.546;2022-08-19T13:25:58;6.07;;;3.47;;
20022;SDS011;10172;42.054;24.546;2022-08-19T13:28:25;5.68;;;3.47;;
20022;SDS011;10172;42.054;24.546;2022-08-19T13:30:51;6.22;;;3.30;;
20022;SDS011;10172;42.054;24.546;2022-08-19T13:33:35;6.32;;;3.22;;
20022;SDS011;10172;42.054;24.546;2022-08-19T13:36:01;6.57;;;3.25;;
20022;SDS011;10172;42.054;24.546;2022-08-19T13:38:27;6.05;;;3.33;;
20022;SDS011;10172;42.054;24.546;2022-08-19T13:40:53;4.93;;;3.47;;
20022;SDS011;10172;42.054;24.546;2022-08-19T13:43:21;6.18;;;3.30;;
20022;SDS011;10172;42.054;24.546;2022-08-19T13:45:51;4.45;;;3.20;;
20022;SDS011;10172;42.054;24.546;2022-08-19T13:48:20;5.75;;;3.15;;
20022;SDS011;10172;42.054;24.546;2022-08-19T13:50:46;4.32;;;3.45;;
20022;SDS011;10172;42.054;24.546;2022-08-19T13:53:13;4.80;;;3.55;;
20022;SDS011;10172;42.054;24.546;2022-08-19T13:55:41;5.90;;;3.47;;
20022;SDS011;10172;42.054;24.546;2022-08-19T13:58:08;3.83;;;3.45;;
20022;SDS011;10172;42.054;24.546;2022-08-19T14:00:36;4.90;;;3.45;;
20022;SDS011;10172;42.054;24.546;2022-08-19T14:03:04;4.55;;;3.50;;
20022;SDS011;10172;42.054;24.546;2022-08-19T14:05:30;4.13;;;3.60;;
20022;SDS011;10172;42.054;24.546;2022-08-19T14:07:57;5.00;;;3.15;;
20022;SDS011;10172;42.054;24.546;2022-08-19T14:10:23;5.32;;;3.47;;
20022;SDS011;10172;42.054;24.546;2022-08-19T14:12:52;7.03;;;3.70;;
20022;SDS011;10172;42.054;24.546;2022-08-19T14:15:20;4.63;;;3.45;;
20022;SDS011;10172;42.054;24.546;2022-08-19T14:17:46;6.90;;;3.55;;
20022;SDS011;10172;42.054;24.546;2022-08-19T14:20:13;3.83;;;3.33;;
20022;SDS011;10172;42.054;24.546;2022-08-19T14:22:40;4.82;;;3.88;;
20022;SDS011;10172;42.054;24.546;2022-08-19T14:25:07;5.15;;;3.38;;
20022;SDS011;10172;42.054;24.546;2022-08-19T14:27:35;6.38;;;3.63;;
20022;SDS011;10172;42.054;24.546;2022-08-19T14:30:06;5.03;;;3.20;;
20022;SDS011;10172;42.054;24.546;2022-08-19T14:32:33;5.43;;;3.08;;
20022;SDS011;10172;42.054;24.546;2022-08-19T14:35:00;5.28;;;3.40;;
20022;SDS011;10172;42.054;24.546;2022-08-19T14:37:26;6.45;;;3.90;;
20022;SDS011;10172;42.054;24.546;2022-08-19T14:39:51;3.97;;;3.47;;
20022;SDS011;10172;42.054;24.546;2022-08-19T14:42:18;6.07;;;3.90;;
20022;SDS011;10172;42.054;24.546;2022-08-19T14:44:44;5.20;;;3.60;;
20022;SDS011;10172;42.054;24.546;2022-08-19T14:47:09;4.70;;;3.40;;
20022;SDS011;10172;42.054;24.546;2022-08-19T14:49:35;4.03;;;3.58;;
20022;SDS011;10172;42.054;24.546;2022-08-19T14:52:01;5.30;;;3.55;;
20022;SDS011;10172;42.054;24.546;2022-08-19T14:54:28;4.60;;;3.42;;
20022;SDS011;10172;42.054;24.546;2022-08-19T14:56:54;5.32;;;3.92;;